createdAt,value
2023-03-26T00:01:21.289Z,7.75
2023-03-26T00:03:54.523Z,7.74
2023-03-26T00:06:23.204Z,7.75
2023-03-26T00:08:50.880Z,7.76
2023-03-26T00:11:19.382Z,7.77
2023-03-26T00:13:46.695Z,7.79
2023-03-26T00:16:17.103Z,7.81
2023-03-26T00:18:44.464Z,7.83
2023-03-26T00:21:14.569Z,7.83
2023-03-26T00:23:41.595Z,7.83
2023-03-26T00:26:11.304Z,7.84
2023-03-26T00:28:42.197Z,7.88
2023-03-26T00:31:11.423Z,7.88
2023-03-26T00:33:38.690Z,7.89
2023-03-26T00:36:10.020Z,7.89
2023-03-26T00:38:39.089Z,7.90
2023-03-26T00:41:18.609Z,7.92
2023-03-26T00:43:46.504Z,7.92
2023-03-26T00:46:13.261Z,7.92
2023-03-26T00:48:45.533Z,7.92
2023-03-26T00:51:16.022Z,7.93
2023-03-26T00:53:44.202Z,7.95
2023-03-26T00:56:11.464Z,7.98
2023-03-26T00:58:38.018Z,8.00
2023-03-26T01:01:08.911Z,8.00
2023-03-26T01:03:38.405Z,8.01
2023-03-26T01:06:16.895Z,8.00
2023-03-26T01:08:46.591Z,8.01
2023-03-26T01:11:17.426Z,8.04
2023-03-26T01:13:49.590Z,8.04
2023-03-26T01:16:22.356Z,8.04
2023-03-26T01:18:51.562Z,8.04
2023-03-26T01:21:23.483Z,8.04
2023-03-26T01:24:05.104Z,8.04
2023-03-26T01:26:52.891Z,8.06
2023-03-26T01:29:28.235Z,8.05
2023-03-26T01:32:09.461Z,8.06
2023-03-26T01:34:52.458Z,8.04
2023-03-26T01:37:33.624Z,8.00
2023-03-26T07:14:12.289Z,6.77
2023-03-26T07:16:38.673Z,6.76
2023-03-26T07:19:05.092Z,6.80
2023-03-26T07:21:31.952Z,6.85
2023-03-26T07:23:58.578Z,6.92
2023-03-26T07:26:49.572Z,6.99
2023-03-26T07:29:34.732Z,7.05
2023-03-26T07:32:28.063Z,7.16
2023-03-26T07:35:21.903Z,7.19
2023-03-26T07:38:07.092Z,7.25
2023-03-26T07:41:04.247Z,7.31
2023-03-26T07:43:44.330Z,7.29
2023-03-26T07:46:12.661Z,7.32
2023-03-26T07:48:44.412Z,7.37
2023-03-26T07:51:12.360Z,7.39
2023-03-26T07:53:38.966Z,7.41
2023-03-26T07:56:17.661Z,7.40
2023-03-26T07:59:06.812Z,7.43
2023-03-26T08:01:57.631Z,7.45
2023-03-26T08:04:41.341Z,7.47
2023-03-26T08:07:20.514Z,7.45
2023-03-26T08:10:26.181Z,7.48
2023-03-26T08:13:22.555Z,7.46
2023-03-26T08:16:30.232Z,7.46
2023-03-26T08:19:11.114Z,7.49
2023-03-26T08:21:47.995Z,7.48
2023-03-26T08:24:24.555Z,7.45
2023-03-26T08:27:02.647Z,7.47
2023-03-26T08:30:14.009Z,7.49
2023-03-26T08:32:40.969Z,7.47
2023-03-26T08:35:11.502Z,7.51
2023-03-26T08:37:39.137Z,7.53
2023-03-26T08:40:06.656Z,7.57
2023-03-26T08:43:10.455Z,7.58
2023-03-26T08:46:10.661Z,7.59
2023-03-26T08:49:01.446Z,7.64
2023-03-26T08:51:27.981Z,7.62
2023-03-26T08:54:23.205Z,7.57
2023-03-26T08:57:03.815Z,7.58
2023-03-26T09:00:01.268Z,7.59
2023-03-26T09:02:53.445Z,7.57
2023-03-26T09:05:42.589Z,7.57
2023-03-26T09:08:30.047Z,7.53
2023-03-26T09:11:26.198Z,7.51
2023-03-26T09:14:32.708Z,7.52
2023-03-26T09:16:59.093Z,7.49
2023-03-26T09:19:54.874Z,7.50
2023-03-26T09:22:45.966Z,7.54
2023-03-26T09:25:34.525Z,7.49
2023-03-26T09:28:30.151Z,7.52
2023-03-26T09:31:16.779Z,7.54
2023-03-26T09:33:56.357Z,7.53
2023-03-26T09:36:42.389Z,7.51
2023-03-26T09:39:46.184Z,7.57
2023-03-26T09:42:27.798Z,7.59
2023-03-26T09:45:22.549Z,7.57
2023-03-26T09:48:10.821Z,7.57
2023-03-26T09:51:04.583Z,7.59
2023-03-26T09:53:56.862Z,7.60
2023-03-26T09:56:44.802Z,7.59
2023-03-26T09:59:29.709Z,7.59
2023-03-26T10:02:45.571Z,7.59
2023-03-26T10:05:41.403Z,7.64
2023-03-26T10:08:22.684Z,7.66
2023-03-26T10:10:57.506Z,7.65
2023-03-26T10:13:58.880Z,7.62
2023-03-26T10:16:41.760Z,7.63
2023-03-26T10:19:26.058Z,7.59
2023-03-26T10:22:14.367Z,7.60
2023-03-26T10:25:20.405Z,7.61
2023-03-26T10:28:13.134Z,7.58
2023-03-26T10:30:58.627Z,7.58
2023-03-26T10:33:31.344Z,7.56
2023-03-26T10:36:23.197Z,7.53
2023-03-26T10:39:09.740Z,7.57
2023-03-26T10:42:04.989Z,7.59
2023-03-26T10:45:14.906Z,7.57
2023-03-26T10:48:19.058Z,7.57
2023-03-26T10:51:13.070Z,7.54
2023-03-26T10:54:22.692Z,7.55
2023-03-26T10:56:52.671Z,7.52
2023-03-26T10:59:19.206Z,7.52
2023-03-26T11:01:58.557Z,7.52
2023-03-26T11:04:40.841Z,7.51
2023-03-26T11:07:27.432Z,7.51
2023-03-26T11:10:12.639Z,7.51
2023-03-26T11:13:04.979Z,7.54
2023-03-26T11:15:36.904Z,7.55
2023-03-26T11:18:19.998Z,7.52
2023-03-26T11:21:19.733Z,7.56
2023-03-26T11:24:05.050Z,7.58
2023-03-26T11:26:44.468Z,7.58
2023-03-26T11:29:34.166Z,7.56
2023-03-26T11:32:10.508Z,7.54
2023-03-26T11:34:59.702Z,7.57
2023-03-26T11:37:33.680Z,7.56
2023-03-26T11:40:06.417Z,7.59
2023-03-26T11:42:33.105Z,7.57
2023-03-26T11:45:05.854Z,7.57
2023-03-26T11:47:38.561Z,7.58
2023-03-26T11:50:10.996Z,7.58
2023-03-26T11:52:37.409Z,7.60
2023-03-26T11:55:04.185Z,7.63
2023-03-26T11:57:34.655Z,7.64
2023-03-26T12:00:16.155Z,7.67
2023-03-26T12:02:42.911Z,7.74
2023-03-26T12:05:16.621Z,7.76
2023-03-26T12:07:58.424Z,7.83
2023-03-26T12:10:26.969Z,7.86
2023-03-26T12:12:59.495Z,7.88
2023-03-26T12:15:27.251Z,7.94
2023-03-26T12:17:58.269Z,7.97
2023-03-26T12:20:25.247Z,7.99
2023-03-26T12:23:34.868Z,8.06
2023-03-26T12:26:12.116Z,8.10
2023-03-26T12:28:44.421Z,8.13
2023-03-26T12:31:18.129Z,8.19
2023-03-26T12:34:02.731Z,8.21
2023-03-26T12:36:33.340Z,8.30
2023-03-26T12:39:16.006Z,8.38
2023-03-26T12:44:43.668Z,8.47
2023-03-26T12:44:58.956Z,8.59
2023-03-26T12:47:57.214Z,8.69
2023-03-26T12:50:34.416Z,8.79
2023-03-26T12:53:33.967Z,8.87
2023-03-26T12:56:27.122Z,8.88
2023-03-26T12:58:56.679Z,8.90
2023-03-26T13:01:35.993Z,8.90
2023-03-26T13:04:34.108Z,8.93
2023-03-26T13:07:34.244Z,8.94
2023-03-26T13:10:37.296Z,9.06
2023-03-26T13:13:21.692Z,9.08
2023-03-26T13:15:59.528Z,9.06
2023-03-26T13:18:38.989Z,9.10
2023-03-26T13:21:12.851Z,9.08
2023-03-26T13:23:45.703Z,9.09
2023-03-26T13:26:44.267Z,9.14
2023-03-26T13:29:56.294Z,9.24
2023-03-26T13:32:44.105Z,9.33
2023-03-26T13:35:17.873Z,9.37
2023-03-26T13:37:53.780Z,9.44
2023-03-26T13:40:42.130Z,9.51
2023-03-26T13:43:14.286Z,9.56
2023-03-26T13:46:07.962Z,9.62
2023-03-26T13:48:52.813Z,9.69
2023-03-26T13:51:35.229Z,9.85
2023-03-26T13:54:23.684Z,9.92
2023-03-26T13:57:13.279Z,10.03
2023-03-26T13:59:46.579Z,10.08
2023-03-26T14:02:38.567Z,10.09
2023-03-26T14:05:21.287Z,10.16
2023-03-26T14:07:57.182Z,10.19
2023-03-26T14:10:28.874Z,10.21
2023-03-26T14:13:20.929Z,10.27
2023-03-26T14:15:49.531Z,10.28
2023-03-26T14:18:18.666Z,10.32
2023-03-26T14:21:11.492Z,10.31
2023-03-26T14:24:08.185Z,10.29
2023-03-26T14:27:05.681Z,10.27
2023-03-26T14:30:16.129Z,10.25
2023-03-26T14:33:12.874Z,10.26
2023-03-26T14:36:11.322Z,10.02
2023-03-26T14:38:40.575Z,9.51
2023-03-26T14:41:29.879Z,9.25
2023-03-26T14:44:48.670Z,9.10
2023-03-26T14:47:23.791Z,9.02
2023-03-26T14:50:12.119Z,8.67
2023-03-26T14:52:52.878Z,8.73
2023-03-26T14:56:18.177Z,8.37
2023-03-26T14:59:09.254Z,8.24
2023-03-26T17:51:40.483Z,7.95
2023-03-26T17:54:15.117Z,7.95
2023-03-26T17:56:42.800Z,7.98
2023-03-26T17:59:23.062Z,7.97
2023-03-26T18:01:53.137Z,7.95
2023-03-26T18:04:27.163Z,7.93
2023-03-26T18:07:19.401Z,7.93
2023-03-26T18:10:22.839Z,7.92
2023-03-26T18:13:04.605Z,7.93
2023-03-26T18:15:45.074Z,7.91
2023-03-26T18:18:37.754Z,7.88
2023-03-26T18:21:07.151Z,7.86
2023-03-26T18:23:39.871Z,7.85
2023-03-26T18:26:16.247Z,7.87
2023-03-26T18:28:45.242Z,7.87
2023-03-26T18:31:26.396Z,7.84
2023-03-26T18:33:59.219Z,7.83
2023-03-26T18:36:27.994Z,7.85
2023-03-26T18:38:58.520Z,7.85
2023-03-26T18:41:46.040Z,7.85
2023-03-26T18:44:18.666Z,7.83
2023-03-26T18:46:45.903Z,7.82
2023-03-26T18:49:17.764Z,7.80
2023-03-26T18:51:56.198Z,7.78
2023-03-26T18:54:24.912Z,7.75
2023-03-26T18:56:52.538Z,7.72
2023-03-26T18:59:28.450Z,7.71
2023-03-26T19:02:00.582Z,7.69
2023-03-26T19:04:28.496Z,7.67
2023-03-26T19:06:56.848Z,7.64
2023-03-26T19:09:31.022Z,7.62
2023-03-26T19:12:06.595Z,7.63
2023-03-26T19:14:37.295Z,7.61
2023-03-26T19:17:07.250Z,7.58
2023-03-26T19:19:37.736Z,7.54
2023-03-26T19:22:07.133Z,7.53
2023-03-26T19:24:34.429Z,7.50
2023-03-26T19:27:01.296Z,7.48
2023-03-26T19:29:32.097Z,7.47
2023-03-26T19:32:04.399Z,7.43
2023-03-26T19:34:31.518Z,7.43
2023-03-26T19:37:01.397Z,7.42
2023-03-26T19:39:45.913Z,7.38
2023-03-26T19:42:16.191Z,7.35
2023-03-26T19:44:43.551Z,7.34
2023-03-26T19:47:17.951Z,7.29
2023-03-26T19:49:47.165Z,7.23
2023-03-26T19:52:33.334Z,7.15
2023-03-26T19:55:19.784Z,7.06
2023-03-26T19:57:46.169Z,7.01
2023-03-26T20:00:14.646Z,6.98
2023-03-26T20:02:42.291Z,6.97
2023-03-26T20:05:19.600Z,6.94
2023-03-26T20:07:45.957Z,6.90
2023-03-26T20:10:12.699Z,6.82
2023-03-26T20:12:39.025Z,6.77
2023-03-26T20:15:19.716Z,6.73
2023-03-26T20:17:57.749Z,6.68
2023-03-26T20:20:30.961Z,6.66
2023-03-26T20:22:57.872Z,6.62
2023-03-26T20:25:31.100Z,6.58
2023-03-26T20:27:58.985Z,6.56
2023-03-26T20:30:37.427Z,6.54
2023-03-26T20:33:12.440Z,6.49
2023-03-26T20:35:41.702Z,6.45
2023-03-26T20:38:09.542Z,6.40
2023-03-26T20:40:36.675Z,6.35
2023-03-26T20:43:03.033Z,6.34
2023-03-26T20:45:30.490Z,6.28
2023-03-26T20:47:57.337Z,6.28
2023-03-26T20:50:24.531Z,6.25
2023-03-26T20:52:51.169Z,6.22
2023-03-26T20:55:21.634Z,6.21
2023-03-26T20:57:48.627Z,6.16
2023-03-26T21:00:33.883Z,6.08
2023-03-26T21:03:00.451Z,6.05
2023-03-26T21:05:29.008Z,6.00
2023-03-26T21:08:20.096Z,5.94
2023-03-26T21:10:47.214Z,5.87
2023-03-26T21:13:43.908Z,5.81
2023-03-26T21:16:12.029Z,5.78
2023-03-26T21:18:39.892Z,5.73
2023-03-26T21:21:34.568Z,5.69
2023-03-26T21:24:17.881Z,5.66
2023-03-26T21:26:53.337Z,5.62
2023-03-26T21:29:19.939Z,5.57
2023-03-26T21:31:46.651Z,5.53
2023-03-26T21:34:14.111Z,5.44
2023-03-26T21:36:41.884Z,5.43
2023-03-26T21:39:10.933Z,5.40
2023-03-26T21:41:45.013Z,5.33
2023-03-26T21:44:11.678Z,5.26
2023-03-26T21:46:41.561Z,5.22
2023-03-26T21:49:08.393Z,5.21
2023-03-26T21:51:35.341Z,5.16
2023-03-26T21:54:02.549Z,5.16
2023-03-26T21:57:02.040Z,5.17
2023-03-26T21:59:51.841Z,5.14
2023-03-26T22:02:21.010Z,5.13
2023-03-26T22:04:53.630Z,5.11
2023-03-26T22:07:27.307Z,5.10
2023-03-26T22:09:53.910Z,5.05
2023-03-26T22:12:20.476Z,5.02
2023-03-26T22:14:47.339Z,5.03
2023-03-26T22:17:13.711Z,5.01
2023-03-26T22:19:40.107Z,4.97
2023-03-26T22:22:07.500Z,4.94
2023-03-26T22:24:34.281Z,4.95
2023-03-26T22:27:00.621Z,4.90
2023-03-26T22:29:29.588Z,4.88
2023-03-26T22:31:55.947Z,4.86
2023-03-26T22:34:23.537Z,4.84
2023-03-26T22:36:52.863Z,4.82
2023-03-26T22:39:19.203Z,4.80
2023-03-26T22:41:45.678Z,4.73
2023-03-26T22:44:19.914Z,4.74
2023-03-26T22:46:49.159Z,4.69
2023-03-26T22:49:16.204Z,4.67
2023-03-26T22:51:42.599Z,4.67
2023-03-26T22:54:09.470Z,4.64
2023-03-26T22:56:37.072Z,4.61
2023-03-26T22:59:05.896Z,4.58
2023-03-26T23:01:32.620Z,4.55
2023-03-26T23:03:59.034Z,4.50
2023-03-26T23:06:25.586Z,4.41
2023-03-26T23:08:52.279Z,4.38
2023-03-26T23:11:21.774Z,4.35
2023-03-26T23:13:48.113Z,4.33
2023-03-26T23:16:15.663Z,4.33
2023-03-26T23:18:42.275Z,4.29
2023-03-26T23:21:20.778Z,4.26
2023-03-26T23:23:49.184Z,4.21
2023-03-26T23:26:16.208Z,4.23
2023-03-26T23:28:43.234Z,4.19
2023-03-26T23:31:13.059Z,4.15
2023-03-26T23:33:45.934Z,4.13
2023-03-26T23:36:14.819Z,4.09
2023-03-26T23:38:44.263Z,4.07
2023-03-26T23:41:14.712Z,4.05
2023-03-26T23:43:54.162Z,4.02
2023-03-26T23:46:30.872Z,4.00
2023-03-26T23:49:02.296Z,3.99
2023-03-26T23:51:30.107Z,3.97
2023-03-26T23:53:56.917Z,3.93
2023-03-26T23:56:23.657Z,3.91
2023-03-26T23:58:50.164Z,3.89
